Terminal Aerodrome Forecast
Issued by NWS

Current Version | Previous Version | Text Only | Print | Product List | Glossary On
Versions: 1 2 3 4 5 6 7 8 9 10 11 12
000
FTUS45 KABQ 181700
TAFFMN
TAF
KFMN 181725Z 1818/1918 11008KT P6SM BKN250
     FM182000 20013KT P6SM SCT120 OVC200
     FM182230 22014G22KT P6SM BKN110
     FM190200 24008KT P6SM BKN100
     FM190800 VRB05KT P6SM VCSH BKN050 OVC100=

USA.gov is the U.S. government's official web portal to all federal, state and local government web resources and services.